Decoded Metar for LFCR (RODEZ in FRANCE) (IATA:RDZ) | Meteo·Mobile Aviation Weather
aviador You're here:

LFCR Decoded Metar

RODEZ in FRANCE
Report Time2019-01-19 06:30:00
UTC Time2019-01-19 06:41:43
Flight Rules mvfr MVFR
Wind150° at 03 kt
W.Decomp.*RWY 13: 2.8 kt HW 1.0 kt RCW
W.Rank150° ranks 9
Current wind is below 150° avg. (7.5)
Visibility8000 m
Phenomena:Patches Fog
Clouds:Broken 029 Hf
Overcast 035 Hf
Ceiling2,900 ft
Temp-1°C (ISA -12)
Dew Point-1°C (100% RH)
AAT-4.2°C
QNH1013 hPa
Density Alt499 ft
Elevation1,903 ft
Report Wrong Elevation
Raw Report
METAR LFCR 190630Z AUTO 15003KT 8000 BKN029 OVC035 M01/M01 Q1013 TEMPO
1500 BCFG BKN003=

Extra information for LFCR:More info

Metar Taf Metar & Taf Last 4 Metars F.Rules Stats Wind Profile Meteogram Temp Stats Airport Information Weather charts Add Link Nearby VenuesMetar ALERT Operation Metar Decoded Social comments